createdAt,value
2023-03-21T00:02:04.074Z,10.80
2023-03-21T00:04:40.921Z,10.80
2023-03-21T00:07:11.473Z,10.80
2023-03-21T00:09:38.169Z,10.80
2023-03-21T00:12:07.414Z,10.80
2023-03-21T00:14:34.615Z,10.80
2023-03-21T00:17:01.759Z,10.80
2023-03-21T00:19:29.023Z,10.80
2023-03-21T00:22:07.128Z,10.70
2023-03-21T00:24:34.555Z,10.70
2023-03-21T00:27:21.957Z,10.80
2023-03-21T00:29:49.419Z,10.70
2023-03-21T00:32:17.974Z,10.70
2023-03-21T00:35:03.875Z,10.70
2023-03-21T00:37:34.211Z,10.70
2023-03-21T00:40:01.255Z,10.70
2023-03-21T00:42:29.920Z,10.70
2023-03-21T00:44:56.790Z,10.70
2023-03-21T00:47:25.766Z,10.70
2023-03-21T00:49:52.616Z,10.70
2023-03-21T00:52:30.574Z,10.70
2023-03-21T00:55:05.103Z,10.70
2023-03-21T00:57:38.516Z,10.70
2023-03-21T01:00:07.915Z,10.80
2023-03-21T01:02:35.528Z,10.70
2023-03-21T01:05:02.271Z,10.70
2023-03-21T01:07:28.946Z,10.70
2023-03-21T01:09:55.735Z,10.70
2023-03-21T01:12:22.424Z,10.70
2023-03-21T01:14:49.188Z,10.70
2023-03-21T01:17:15.942Z,10.70
2023-03-21T01:19:51.671Z,10.70
2023-03-21T01:22:19.210Z,10.60
2023-03-21T01:24:55.187Z,10.60
2023-03-21T01:27:25.507Z,10.60
2023-03-21T01:29:52.360Z,10.60
2023-03-21T01:32:19.320Z,10.60
2023-03-21T01:34:46.157Z,10.60
2023-03-21T01:37:12.887Z,10.60
2023-03-21T01:39:45.721Z,10.60
2023-03-21T01:42:12.485Z,10.60
2023-03-21T01:44:39.191Z,10.60
2023-03-21T01:47:11.926Z,10.60
2023-03-21T01:49:46.384Z,10.60
2023-03-21T01:52:33.463Z,10.60
2023-03-21T01:55:03.885Z,10.60
2023-03-21T01:57:43.802Z,10.60
2023-03-21T02:00:16.678Z,10.60
2023-03-21T02:02:58.258Z,10.50
2023-03-21T02:05:52.557Z,10.50
2023-03-21T02:08:22.275Z,10.40
2023-03-21T02:10:53.078Z,10.40
2023-03-21T02:13:31.731Z,10.40
2023-03-21T02:15:58.565Z,10.40
2023-03-21T02:18:31.784Z,10.40
2023-03-21T02:20:58.531Z,10.40
2023-03-21T02:23:34.582Z,10.30
2023-03-21T02:26:01.516Z,10.40
2023-03-21T02:28:29.112Z,10.40
2023-03-21T02:30:56.590Z,10.30
2023-03-21T02:33:24.131Z,10.30
2023-03-21T02:35:54.501Z,10.30
2023-03-21T02:38:24.366Z,10.30
2023-03-21T02:40:51.070Z,10.30
2023-03-21T02:43:23.415Z,10.30
2023-03-21T02:45:51.043Z,10.30
2023-03-21T02:48:27.891Z,10.30
2023-03-21T02:50:57.005Z,10.20
2023-03-21T02:53:23.735Z,10.30
2023-03-21T02:55:51.683Z,10.30
2023-03-21T02:58:18.539Z,10.30
2023-03-21T03:00:49.992Z,10.30
2023-03-21T03:03:39.526Z,10.30
2023-03-21T03:06:06.644Z,10.30
2023-03-21T03:08:43.125Z,10.30
2023-03-21T03:11:14.887Z,10.30
2023-03-21T03:13:41.590Z,10.30
2023-03-21T03:16:10.201Z,10.30
2023-03-21T03:18:37.157Z,10.30
2023-03-21T03:21:03.914Z,10.30
2023-03-21T03:23:30.638Z,10.30
2023-03-21T03:25:57.422Z,10.30
2023-03-21T03:28:24.185Z,10.30
2023-03-21T03:31:07.474Z,10.20
2023-03-21T03:33:40.251Z,10.30
2023-03-21T03:36:07.891Z,10.20
2023-03-21T03:38:36.382Z,10.20
2023-03-21T03:41:03.775Z,10.20
2023-03-21T03:43:40.326Z,10.20
2023-03-21T03:46:10.518Z,10.10
2023-03-21T03:48:38.485Z,10.10
2023-03-21T03:51:05.317Z,10.10
2023-03-21T03:53:54.922Z,10.10
2023-03-21T03:56:25.485Z,10.00
2023-03-21T03:58:52.280Z,10.00
2023-03-21T04:01:24.718Z,10.00
2023-03-21T04:03:58.552Z,10.00
2023-03-21T04:06:30.502Z,10.00
2023-03-21T04:08:58.929Z,9.90
2023-03-21T04:11:30.110Z,9.90
2023-03-21T04:13:56.859Z,9.90
2023-03-21T04:16:24.296Z,9.90
2023-03-21T04:18:52.492Z,10.00
2023-03-21T04:21:19.193Z,9.90
2023-03-21T04:23:45.967Z,10.00
2023-03-21T04:26:12.780Z,10.00
2023-03-21T04:28:46.884Z,10.00
2023-03-21T04:31:31.042Z,10.00
2023-03-21T04:34:09.744Z,10.00
2023-03-21T04:36:47.493Z,10.00
2023-03-21T04:39:15.270Z,10.00
2023-03-21T04:41:45.417Z,9.90
2023-03-21T04:44:12.262Z,9.90
2023-03-21T04:46:38.946Z,9.90
2023-03-21T04:49:09.733Z,9.90
2023-03-21T04:51:36.542Z,9.90
2023-03-21T04:56:35.476Z,9.80
2023-03-21T04:59:03.287Z,9.80
2023-03-21T05:01:30.916Z,9.80
2023-03-21T05:03:57.648Z,9.80
2023-03-21T05:06:24.430Z,9.80
2023-03-21T05:08:51.113Z,9.80
2023-03-21T05:11:17.883Z,9.80
2023-03-21T05:13:44.603Z,9.80
2023-03-21T05:16:11.389Z,9.80
2023-03-21T05:18:38.819Z,9.80
2023-03-21T05:21:18.215Z,9.80
2023-03-21T05:23:54.151Z,9.80
2023-03-21T05:26:21.177Z,9.80
2023-03-21T05:28:56.226Z,9.80
2023-03-21T05:31:24.842Z,9.70
2023-03-21T05:33:58.910Z,9.70
2023-03-21T05:36:25.914Z,9.70
2023-03-21T05:38:52.894Z,9.70
2023-03-21T05:41:21.355Z,9.60
2023-03-21T05:43:48.579Z,9.60
2023-03-21T05:46:15.955Z,9.60
2023-03-21T05:48:43.097Z,9.60
2023-03-21T05:51:14.529Z,9.60
2023-03-21T05:53:41.410Z,9.60
2023-03-21T05:56:08.648Z,9.60
2023-03-21T05:58:47.730Z,9.60
2023-03-21T06:01:14.850Z,9.60
2023-03-21T06:03:47.414Z,9.60
2023-03-21T06:06:21.466Z,9.60
2023-03-21T06:08:56.264Z,9.60
2023-03-21T06:11:24.423Z,9.60
2023-03-21T06:13:55.510Z,9.60
2023-03-21T06:16:23.041Z,9.60
2023-03-21T06:18:50.084Z,9.60
2023-03-21T06:21:36.774Z,9.60
2023-03-21T06:24:07.461Z,9.60
2023-03-21T06:26:34.329Z,9.60
2023-03-21T06:29:01.342Z,9.60
2023-03-21T06:31:28.181Z,9.70
2023-03-21T06:34:01.247Z,9.70
2023-03-21T06:36:28.058Z,9.70
2023-03-21T06:38:54.738Z,9.70
2023-03-21T06:41:21.743Z,9.70
2023-03-21T06:44:00.045Z,9.70
2023-03-21T06:46:28.142Z,9.70
2023-03-21T06:48:55.426Z,9.70
2023-03-21T06:51:22.177Z,9.70
2023-03-21T06:54:16.043Z,9.70
2023-03-21T06:56:51.134Z,9.80
2023-03-21T06:59:24.021Z,9.80
2023-03-21T07:02:05.687Z,9.80
2023-03-21T07:04:37.565Z,9.80
2023-03-21T07:07:05.895Z,9.90
2023-03-21T07:09:32.620Z,9.90
2023-03-21T07:12:04.289Z,9.90
2023-03-21T07:14:44.164Z,9.90
2023-03-21T07:17:11.811Z,10.00
2023-03-21T07:19:38.621Z,10.00
2023-03-21T07:22:05.414Z,10.10
2023-03-21T07:24:32.095Z,10.20
2023-03-21T07:26:59.088Z,10.10
2023-03-21T07:29:25.872Z,10.20
2023-03-21T07:31:52.690Z,10.20
2023-03-21T07:34:22.416Z,10.20
2023-03-21T07:36:50.472Z,10.30
2023-03-21T07:39:17.727Z,10.30
2023-03-21T07:41:44.640Z,10.30
2023-03-21T07:44:23.257Z,10.30
2023-03-21T07:47:01.514Z,10.30
2023-03-21T07:49:28.452Z,10.30
2023-03-21T07:51:55.350Z,10.30
2023-03-21T07:54:23.189Z,10.30
2023-03-21T07:56:49.939Z,10.30
2023-03-21T07:59:16.657Z,10.30
2023-03-21T08:01:43.377Z,10.30
2023-03-21T08:04:10.184Z,10.40
2023-03-21T08:06:36.851Z,10.30
2023-03-21T08:09:03.745Z,10.40
2023-03-21T08:11:31.600Z,10.40
2023-03-21T08:13:58.390Z,10.30
2023-03-21T08:16:25.124Z,10.30
2023-03-21T08:18:51.897Z,10.40
2023-03-21T08:21:19.074Z,10.40
2023-03-21T08:23:45.955Z,10.50
2023-03-21T08:26:18.443Z,10.50
2023-03-21T08:28:45.269Z,10.60
2023-03-21T08:31:12.035Z,10.60
2023-03-21T08:33:38.892Z,10.70
2023-03-21T08:36:05.747Z,10.70
2023-03-21T08:38:33.654Z,10.70
2023-03-21T08:41:00.579Z,10.80
2023-03-21T08:43:27.377Z,10.80
2023-03-21T08:45:54.154Z,10.80
2023-03-21T08:48:20.957Z,10.90
2023-03-21T08:50:47.647Z,10.90
2023-03-21T08:53:14.518Z,11.00
2023-03-21T08:55:41.168Z,11.00
2023-03-21T08:58:07.964Z,11.00
2023-03-21T09:00:34.648Z,11.00
2023-03-21T09:03:01.485Z,11.00
2023-03-21T09:05:28.519Z,11.10
2023-03-21T09:07:55.251Z,11.20
2023-03-21T09:10:22.593Z,11.30
2023-03-21T09:12:49.664Z,11.40
2023-03-21T09:15:17.980Z,11.40
2023-03-21T09:17:49.034Z,11.50
2023-03-21T09:20:18.749Z,11.60
2023-03-21T09:22:45.711Z,11.60
2023-03-21T09:25:13.233Z,11.60
2023-03-21T09:27:40.018Z,11.60
2023-03-21T09:30:07.542Z,11.70
2023-03-21T09:32:34.587Z,11.70
2023-03-21T09:35:01.307Z,11.80
2023-03-21T09:37:28.199Z,11.80
2023-03-21T09:39:56.778Z,11.90
2023-03-21T09:42:23.586Z,12.10
2023-03-21T09:44:51.372Z,12.20
2023-03-21T09:47:21.707Z,12.30
2023-03-21T09:49:51.106Z,12.40
2023-03-21T09:52:17.911Z,12.50
2023-03-21T09:54:44.722Z,12.50
2023-03-21T09:57:11.860Z,12.60
2023-03-21T09:59:40.171Z,12.70
2023-03-21T10:02:07.250Z,12.70
2023-03-21T10:04:34.055Z,12.80
2023-03-21T10:07:01.883Z,12.90
2023-03-21T10:09:29.219Z,13.00
2023-03-21T10:11:56.192Z,13.10
2023-03-21T10:14:22.961Z,13.20
2023-03-21T10:16:49.767Z,13.20
2023-03-21T10:19:16.612Z,13.30
2023-03-21T10:21:59.787Z,13.30
2023-03-21T10:24:27.935Z,13.20
2023-03-21T10:26:54.727Z,13.20
2023-03-21T10:29:22.567Z,13.30
2023-03-21T10:31:49.339Z,13.20
2023-03-21T10:34:16.160Z,13.20
2023-03-21T10:36:42.851Z,13.10
2023-03-21T10:39:09.613Z,13.10
2023-03-21T10:41:36.467Z,13.00
2023-03-21T10:44:03.375Z,13.00
2023-03-21T10:46:30.293Z,13.00
2023-03-21T10:48:57.231Z,13.10
2023-03-21T10:51:23.970Z,13.20
2023-03-21T10:53:51.401Z,13.30
2023-03-21T10:56:18.126Z,13.40
2023-03-21T10:58:45.414Z,13.30
2023-03-21T11:01:15.018Z,13.30
2023-03-21T11:03:43.772Z,13.30
2023-03-21T11:06:11.015Z,13.20
2023-03-21T11:08:37.747Z,13.20
2023-03-21T11:11:04.484Z,13.30
2023-03-21T11:13:31.403Z,13.30
2023-03-21T11:15:58.650Z,13.30
2023-03-21T11:18:25.513Z,13.30
2023-03-21T11:20:52.299Z,13.40
2023-03-21T11:23:20.728Z,13.50
2023-03-21T11:25:47.744Z,13.60
2023-03-21T11:28:14.494Z,13.60
2023-03-21T11:30:41.244Z,13.70
2023-03-21T11:33:08.066Z,13.70
2023-03-21T11:35:34.759Z,13.80
2023-03-21T11:38:01.468Z,14.00
2023-03-21T11:40:28.173Z,14.10
2023-03-21T11:42:54.980Z,14.20
2023-03-21T11:45:21.751Z,14.30
2023-03-21T11:47:49.571Z,14.30
2023-03-21T11:50:16.622Z,14.40
2023-03-21T11:52:43.322Z,14.40
2023-03-21T11:55:10.020Z,14.50
2023-03-21T11:57:37.237Z,14.50
2023-03-21T12:00:09.449Z,14.50
2023-03-21T12:02:36.315Z,14.50
2023-03-21T12:05:03.626Z,14.40
2023-03-21T12:07:30.738Z,14.30
2023-03-21T12:09:57.641Z,14.20
2023-03-21T12:12:29.996Z,14.10
2023-03-21T12:15:05.015Z,14.10
2023-03-21T12:17:31.812Z,14.00
2023-03-21T12:19:58.614Z,13.90
2023-03-21T12:22:25.376Z,13.80
2023-03-21T12:24:52.220Z,13.70
2023-03-21T12:27:18.889Z,13.70
2023-03-21T12:29:45.590Z,13.80
2023-03-21T12:32:12.357Z,13.90
2023-03-21T12:34:39.045Z,13.90
2023-03-21T12:37:05.730Z,13.90
2023-03-21T12:39:32.562Z,13.90
2023-03-21T12:41:59.272Z,14.00
2023-03-21T12:44:26.066Z,14.00
2023-03-21T12:46:53.358Z,13.90
2023-03-21T12:49:20.150Z,13.90
2023-03-21T12:51:46.983Z,13.90
2023-03-21T12:54:13.721Z,14.00
2023-03-21T12:56:40.544Z,14.00
2023-03-21T12:59:07.413Z,14.00
2023-03-21T13:01:34.088Z,14.00
2023-03-21T13:04:01.382Z,14.00
2023-03-21T13:06:28.225Z,14.00
2023-03-21T13:08:54.949Z,14.00
2023-03-21T13:11:21.640Z,14.00
2023-03-21T13:13:48.461Z,14.00
2023-03-21T13:16:15.413Z,14.10
2023-03-21T13:18:42.263Z,14.00
2023-03-21T13:21:09.022Z,14.10
2023-03-21T13:23:36.373Z,14.00
2023-03-21T13:26:03.333Z,13.90
2023-03-21T13:28:30.310Z,14.00
2023-03-21T13:30:57.964Z,14.10
2023-03-21T13:33:25.997Z,14.30
2023-03-21T13:35:52.755Z,14.40
2023-03-21T13:38:19.678Z,14.50
2023-03-21T13:40:46.401Z,14.50
2023-03-21T13:43:16.244Z,14.60
2023-03-21T13:45:45.769Z,14.60
2023-03-21T13:48:12.521Z,14.60
2023-03-21T13:50:39.281Z,14.50
2023-03-21T13:53:06.034Z,14.40
2023-03-21T13:55:34.343Z,14.40
2023-03-21T13:58:01.266Z,14.40
2023-03-21T14:00:29.458Z,14.50
2023-03-21T14:02:57.358Z,14.50
2023-03-21T14:05:24.141Z,14.50
2023-03-21T14:07:52.677Z,14.40
2023-03-21T14:10:19.563Z,14.40
2023-03-21T14:12:46.381Z,14.40
2023-03-21T14:15:16.835Z,14.30
2023-03-21T14:17:44.440Z,14.30
2023-03-21T14:20:12.452Z,14.30
2023-03-21T14:22:39.267Z,14.20
2023-03-21T14:25:05.994Z,14.20
2023-03-21T14:27:32.809Z,14.20
2023-03-21T14:29:59.646Z,14.20
2023-03-21T14:32:26.786Z,14.20
2023-03-21T14:34:53.538Z,14.20
2023-03-21T14:37:20.257Z,14.20
2023-03-21T14:39:47.007Z,14.20
2023-03-21T14:42:14.922Z,14.30
2023-03-21T14:44:53.819Z,14.40
2023-03-21T14:47:21.589Z,14.50
2023-03-21T14:49:48.271Z,14.50
2023-03-21T14:52:15.047Z,14.60
2023-03-21T14:54:41.774Z,14.70
2023-03-21T14:57:08.565Z,14.70
2023-03-21T14:59:35.409Z,14.70
2023-03-21T15:02:03.768Z,14.70
2023-03-21T15:04:30.656Z,14.70
2023-03-21T15:06:57.469Z,14.70
2023-03-21T15:09:24.865Z,14.70
2023-03-21T15:11:51.873Z,14.70
2023-03-21T15:14:18.696Z,14.70
2023-03-21T15:16:45.695Z,14.70
2023-03-21T15:19:12.398Z,14.70
2023-03-21T15:21:39.246Z,14.70
2023-03-21T15:24:06.091Z,14.80
2023-03-21T15:26:32.958Z,14.80
2023-03-21T15:28:59.658Z,14.80
2023-03-21T15:31:26.426Z,14.80
2023-03-21T15:33:53.232Z,14.80
2023-03-21T15:36:20.059Z,14.60
2023-03-21T15:38:48.965Z,14.50
2023-03-21T15:41:16.364Z,14.40
2023-03-21T15:43:43.052Z,14.30
2023-03-21T15:46:09.822Z,14.20
2023-03-21T15:48:36.578Z,14.10
2023-03-21T15:51:03.311Z,14.00
2023-03-21T15:53:30.528Z,14.00
2023-03-21T15:55:57.358Z,14.00
2023-03-21T15:58:24.076Z,13.90
2023-03-21T16:00:54.345Z,13.90
2023-03-21T16:03:21.904Z,13.80
2023-03-21T16:05:48.639Z,13.80
2023-03-21T16:08:15.357Z,13.80
2023-03-21T16:10:42.064Z,13.70
2023-03-21T16:13:08.810Z,13.70
2023-03-21T16:15:35.534Z,13.80
2023-03-21T16:18:02.284Z,13.80
2023-03-21T16:20:29.005Z,13.80
2023-03-21T16:22:55.950Z,13.70
2023-03-21T16:25:22.674Z,13.70
2023-03-21T16:27:49.574Z,13.60
2023-03-21T16:30:16.365Z,13.50
2023-03-21T16:32:43.151Z,13.50
2023-03-21T16:35:09.870Z,13.40
2023-03-21T16:37:36.674Z,13.40
2023-03-21T16:40:05.877Z,13.40
2023-03-21T16:42:32.691Z,13.30
2023-03-21T16:44:59.364Z,13.30
2023-03-21T16:47:26.099Z,13.30
2023-03-21T16:49:52.809Z,13.20
2023-03-21T16:52:19.621Z,13.20
2023-03-21T16:54:46.383Z,13.20
2023-03-21T16:57:13.108Z,13.20
2023-03-21T16:59:40.826Z,13.20
2023-03-21T17:02:07.587Z,13.30
2023-03-21T17:04:34.292Z,13.50
2023-03-21T17:07:01.190Z,13.80
2023-03-21T17:09:27.987Z,14.00
2023-03-21T17:11:54.830Z,14.00
2023-03-21T17:14:22.287Z,13.90
2023-03-21T17:16:49.209Z,13.80
2023-03-21T17:19:16.097Z,13.60
2023-03-21T17:21:42.945Z,13.50
2023-03-21T17:24:09.689Z,13.30
2023-03-21T17:26:36.552Z,13.20
2023-03-21T17:29:03.259Z,13.10
2023-03-21T17:31:30.030Z,13.00
2023-03-21T17:33:56.722Z,12.90
2023-03-21T17:36:23.472Z,12.80
2023-03-21T17:38:50.141Z,12.80
2023-03-21T17:41:17.078Z,12.80
2023-03-21T17:43:43.786Z,12.70
2023-03-21T17:46:11.233Z,12.70
2023-03-21T17:48:38.032Z,12.60
2023-03-21T17:51:04.764Z,12.50
2023-03-21T17:53:31.422Z,12.40
2023-03-21T17:55:58.283Z,12.40
2023-03-21T17:58:26.278Z,12.30
2023-03-21T18:00:52.991Z,12.20
2023-03-21T18:03:20.373Z,12.20
2023-03-21T18:05:47.180Z,12.20
2023-03-21T18:08:13.910Z,12.10
2023-03-21T18:10:41.146Z,12.00
2023-03-21T18:13:08.167Z,12.00
2023-03-21T18:15:37.729Z,11.90
2023-03-21T18:18:05.304Z,11.80
2023-03-21T18:20:51.181Z,11.80
2023-03-21T18:23:19.330Z,11.70
2023-03-21T18:25:46.014Z,11.60
2023-03-21T18:28:13.223Z,11.60
2023-03-21T18:33:27.500Z,11.50
2023-03-21T18:35:59.060Z,11.50
2023-03-21T18:38:26.488Z,11.40
2023-03-21T18:40:53.220Z,11.40
2023-03-21T18:46:07.316Z,11.30
2023-03-21T18:48:34.481Z,11.30
2023-03-21T18:51:02.331Z,11.20
2023-03-21T18:53:30.035Z,11.20
2023-03-21T18:55:57.571Z,11.20
2023-03-21T18:58:24.840Z,11.10
2023-03-21T19:00:53.572Z,11.10
2023-03-21T19:03:34.170Z,11.10
2023-03-21T19:06:03.874Z,11.10
2023-03-21T19:08:31.244Z,11.10
2023-03-21T19:11:00.211Z,11.10
2023-03-21T19:13:30.061Z,11.10
2023-03-21T19:15:56.845Z,11.10
2023-03-21T19:18:41.664Z,11.10
2023-03-21T19:21:10.457Z,11.10
2023-03-21T19:24:15.148Z,11.20
2023-03-21T19:26:24.306Z,11.20
2023-03-21T19:28:51.010Z,11.20
2023-03-21T19:31:21.113Z,11.20
2023-03-21T19:33:47.990Z,11.10
2023-03-21T19:36:21.810Z,11.00
2023-03-21T19:38:49.146Z,10.90
2023-03-21T19:41:16.563Z,10.90
2023-03-21T19:43:53.315Z,10.80
2023-03-21T19:46:24.700Z,10.80
2023-03-21T19:48:51.632Z,10.70
2023-03-21T19:51:28.189Z,10.70
2023-03-21T19:53:56.334Z,10.60
2023-03-21T19:56:26.549Z,10.60
2023-03-21T19:58:53.981Z,10.60
2023-03-21T20:01:21.225Z,10.60
2023-03-21T20:03:48.010Z,10.60
2023-03-21T20:06:14.803Z,10.60
2023-03-21T20:11:28.202Z,10.60
2023-03-21T20:13:54.978Z,10.60
2023-03-21T20:16:21.881Z,10.50
2023-03-21T20:18:48.644Z,10.50
2023-03-21T20:21:17.942Z,10.40
2023-03-21T20:23:49.250Z,10.40
2023-03-21T20:26:16.880Z,10.40
2023-03-21T20:28:56.694Z,10.30
2023-03-21T20:31:30.871Z,10.30
2023-03-21T20:33:57.731Z,10.30
2023-03-21T20:36:38.669Z,10.30
2023-03-21T20:39:06.694Z,10.30
2023-03-21T20:41:33.420Z,10.30
2023-03-21T20:46:48.073Z,10.30
2023-03-21T20:49:15.490Z,10.30
2023-03-21T20:54:30.076Z,10.30
2023-03-21T20:56:57.359Z,10.30
2023-03-21T20:59:27.516Z,10.30
2023-03-21T21:01:54.761Z,10.20
2023-03-21T21:04:22.694Z,10.20
2023-03-21T21:06:49.648Z,10.20
2023-03-21T21:09:16.532Z,10.20
2023-03-21T21:12:06.255Z,10.20
2023-03-21T21:14:29.967Z,10.30
2023-03-21T21:16:56.656Z,10.30
2023-03-21T21:19:23.390Z,10.30
2023-03-21T21:21:50.173Z,10.30
2023-03-21T21:24:16.888Z,10.30
2023-03-21T21:26:46.327Z,10.30
2023-03-21T21:29:16.733Z,10.40
2023-03-21T21:31:44.545Z,10.40
2023-03-21T21:34:11.354Z,10.40
2023-03-21T21:36:38.160Z,10.40
2023-03-21T21:39:04.851Z,10.40
2023-03-21T21:41:31.599Z,10.40
2023-03-21T21:43:58.359Z,10.50
2023-03-21T21:46:25.145Z,10.40
2023-03-21T21:48:51.856Z,10.50
2023-03-21T21:51:25.987Z,10.50
2023-03-21T21:53:52.707Z,10.50
2023-03-21T21:56:22.677Z,10.50
2023-03-21T21:58:52.178Z,10.50
2023-03-21T22:01:20.729Z,10.50
2023-03-21T22:03:47.449Z,10.50
2023-03-21T22:06:14.182Z,10.50
2023-03-21T22:08:47.042Z,10.60
2023-03-21T22:11:13.773Z,10.60
2023-03-21T22:13:40.862Z,10.60
2023-03-21T22:16:07.645Z,10.60
2023-03-21T22:18:36.130Z,10.60
2023-03-21T22:21:02.933Z,10.60
2023-03-21T22:23:29.651Z,10.60
2023-03-21T22:25:56.681Z,10.70
2023-03-21T22:28:25.751Z,10.60
2023-03-21T22:30:52.558Z,10.60
2023-03-21T22:33:22.231Z,10.70
2023-03-21T22:35:48.908Z,10.70
2023-03-21T22:38:17.918Z,10.70
2023-03-21T22:40:44.691Z,10.70
2023-03-21T22:43:11.419Z,10.70
2023-03-21T22:45:38.306Z,10.70
2023-03-21T22:48:05.451Z,10.80
2023-03-21T22:50:32.332Z,10.80
2023-03-21T22:52:59.028Z,10.80
2023-03-21T22:55:25.919Z,10.80
2023-03-21T22:57:52.655Z,10.80
2023-03-21T23:00:20.034Z,10.80
2023-03-21T23:02:46.800Z,10.80
2023-03-21T23:05:13.662Z,10.80
2023-03-21T23:07:40.559Z,10.90
2023-03-21T23:10:07.740Z,10.90
2023-03-21T23:12:34.437Z,10.90
2023-03-21T23:15:02.398Z,10.90
2023-03-21T23:17:29.291Z,10.90
2023-03-21T23:19:56.253Z,10.90
2023-03-21T23:22:22.957Z,10.90
2023-03-21T23:24:49.676Z,10.90
2023-03-21T23:27:18.178Z,11.00
2023-03-21T23:29:45.420Z,10.90
2023-03-21T23:32:12.246Z,11.00
2023-03-21T23:34:39.088Z,11.00
2023-03-21T23:37:06.916Z,11.00
2023-03-21T23:39:33.807Z,11.00
2023-03-21T23:42:00.558Z,11.00
2023-03-21T23:44:27.554Z,11.00
2023-03-21T23:46:54.337Z,11.00
2023-03-21T23:49:21.033Z,11.00
2023-03-21T23:51:47.743Z,11.10
2023-03-21T23:54:14.942Z,11.10
2023-03-21T23:56:42.095Z,11.10
2023-03-21T23:59:08.858Z,11.10
